Time;durP1;ratioP1;P1;durP2;ratioP2;P2;SDS_P1;SDS_P2;PMS_P1;PMS_P2;Temp;Humidity;BMP_temperature;BMP_pressure;BME280_temperature;BME280_humidity;BME280_pressure;Samples;Min_cycle;Max_cycle;Signal;HPM_P1;HPM_P2
2023/02/16 00:00:30;;;;;;;;;22.75;21.00;;;;;20.95;38.29;102378.19;5036455;28;45414;-72
2023/02/16 00:02:56;;;;;;;;;21.75;20.75;;;;;20.95;38.12;102376.38;5035883;28;45312;-72
2023/02/16 00:05:33;;;;;;;;;23.25;20.75;;;;;20.95;38.12;102378.19;5036084;28;45408;-72
2023/02/16 00:07:59;;;;;;;;;23.75;21.75;;;;;20.94;38.14;102380.00;5036498;28;45469;-71
2023/02/16 00:10:30;;;;;;;;;25.25;22.75;;;;;20.93;38.11;102378.31;5036290;28;45527;-72
2023/02/16 00:15:40;;;;;;;;;22.00;20.75;;;;;20.92;38.17;102367.88;5036429;28;45391;-72
2023/02/16 00:18:15;;;;;;;;;18.75;15.50;;;;;20.92;38.16;102358.13;5034875;28;47581;-72
2023/02/16 00:20:41;;;;;;;;;21.50;20.50;;;;;20.61;38.26;102323.78;5035911;28;45374;-72
2023/02/16 00:23:06;;;;;;;;;19.50;19.50;;;;;20.90;38.24;102367.16;5036166;28;45523;-72
2023/02/16 00:25:31;;;;;;;;;22.00;21.00;;;;;20.90;38.08;102359.22;5036497;28;45410;-71
2023/02/16 00:27:57;;;;;;;;;22.50;18.75;;;;;20.89;38.16;102371.63;5036211;28;46119;-72
2023/02/16 00:30:22;;;;;;;;;25.75;24.00;;;;;20.87;38.30;102367.44;5036063;28;45403;-72
2023/02/16 00:32:48;;;;;;;;;24.25;20.75;;;;;20.77;38.12;102351.53;5036115;28;45441;-72
2023/02/16 00:35:18;;;;;;;;;21.75;20.00;;;;;20.82;38.13;102344.88;5035597;28;45426;-72
2023/02/16 00:37:44;;;;;;;;;21.25;20.25;;;;;20.87;38.07;102359.53;5036133;28;46363;-72
2023/02/16 00:40:11;;;;;;;;;22.00;21.25;;;;;20.82;38.30;102347.50;5035905;28;45387;-73
2023/02/16 00:42:37;;;;;;;;;23.50;21.00;;;;;20.85;37.85;102357.84;5036081;28;45326;-73
2023/02/16 00:45:04;;;;;;;;;21.50;20.50;;;;;20.85;38.30;102357.00;5035889;28;45348;-72
2023/02/16 00:47:36;;;;;;;;;25.25;18.75;;;;;20.85;38.81;102347.25;5035574;28;48241;-70
2023/02/16 00:50:06;;;;;;;;;21.00;20.00;;;;;20.85;38.24;102357.00;5036141;28;45465;-73
2023/02/16 00:52:36;;;;;;;;;22.25;20.75;;;;;20.83;38.16;102351.84;5035803;28;45439;-72
2023/02/16 00:55:12;;;;;;;;;20.25;17.50;;;;;20.84;38.39;102358.78;5035853;28;45331;-72
2023/02/16 00:58:19;;;;;;;;;22.25;21.00;;;;;20.83;38.09;102353.66;5035662;28;47170;-72
2023/02/16 01:00:49;;;;;;;;;20.50;19.00;;;;;20.83;37.92;102353.66;4935307;28;45403;-72
2023/02/16 01:03:17;;;;;;;;;21.00;21.00;;;;;20.82;37.89;102351.97;4918924;28;45556;-72
2023/02/16 01:05:43;;;;;;;;;24.00;21.25;;;;;20.83;38.16;102354.50;4935360;28;45550;-72
2023/02/16 01:11:08;;;;;;;;;23.75;22.25;;;;;20.83;37.97;102343.06;4935093;28;45434;-73
2023/02/16 01:13:53;;;;;;;;;23.00;19.50;;;;;20.83;38.03;102341.25;4935130;28;45429;-73
2023/02/16 01:16:25;;;;;;;;;26.00;22.75;;;;;20.83;38.05;102340.41;4934483;28;45552;-70
2023/02/16 01:18:51;;;;;;;;;22.00;20.00;;;;;20.84;37.79;102348.22;4934970;28;46841;-70
2023/02/16 01:21:17;;;;;;;;;23.25;22.00;;;;;20.83;37.65;102332.47;4919184;28;45268;-70
2023/02/16 01:23:43;;;;;;;;;25.75;22.25;;;;;20.78;38.48;102330.25;4935078;28;45460;-72
2023/02/16 01:26:14;;;;;;;;;23.25;21.50;;;;;20.82;38.07;102320.22;4935211;28;45356;-72
2023/02/16 01:28:41;;;;;;;;;27.75;25.50;;;;;20.83;37.74;102321.91;4935004;28;47342;-72
2023/02/16 01:31:06;;;;;;;;;22.75;20.00;;;;;20.78;37.96;102314.38;4934409;28;45303;-71
2023/02/16 01:33:31;;;;;;;;;22.50;20.25;;;;;20.78;37.86;102318.84;4935059;28;45546;-72
2023/02/16 01:35:57;;;;;;;;;25.25;22.00;;;;;20.77;37.88;102327.72;4934909;28;45322;-72
2023/02/16 01:38:25;;;;;;;;;22.75;19.75;;;;;20.81;38.28;102332.63;5023646;28;46997;-72
2023/02/16 01:41:07;;;;;;;;;23.75;20.50;;;;;20.80;37.96;102327.47;5034955;28;45533;-72
2023/02/16 01:43:46;;;;;;;;;24.75;20.75;;;;;20.77;37.92;102317.16;5035198;28;45466;-71
2023/02/16 01:46:22;;;;;;;;;19.25;17.75;;;;;20.79;38.06;102325.81;5034940;28;45414;-71
2023/02/16 01:48:47;;;;;;;;;26.00;21.00;;;;;20.79;37.99;102318.69;5035010;28;45735;-72
2023/02/16 01:51:36;;;;;;;;;22.00;20.25;;;;;20.80;37.91;102322.16;5035139;28;45272;-72
2023/02/16 01:54:32;;;;;;;;;26.00;22.25;;;;;20.80;37.83;102324.81;5035297;28;45387;-72
2023/02/16 01:57:20;;;;;;;;;19.50;19.50;;;;;20.78;38.10;102316.19;5035029;28;45216;-72
2023/02/16 01:59:48;;;;;;;;;22.75;20.25;;;;;20.78;37.96;102317.03;5034756;28;46200;-72
2023/02/16 02:02:15;;;;;;;;;21.00;20.00;;;;;20.78;37.78;102317.03;5034556;28;45226;-72
2023/02/16 02:08:00;;;;;;;;;24.75;21.00;;;;;20.77;38.16;102306.56;5034917;28;45288;-72
2023/02/16 02:10:55;;;;;;;;;23.25;19.50;;;;;20.77;37.85;102314.50;5034800;28;45248;-72
2023/02/16 02:13:33;;;;;;;;;22.25;21.25;;;;;20.77;37.97;102311.84;5034777;28;45336;-72
2023/02/16 02:15:59;;;;;;;;;19.50;16.00;;;;;20.76;37.75;102310.19;5034528;28;45330;-72
2023/02/16 02:18:25;;;;;;;;;22.75;21.50;;;;;20.76;38.02;102304.91;5034813;28;45267;-71
2023/02/16 02:24:22;;;;;;;;;21.75;18.25;;;;;20.76;37.81;102299.63;5034747;28;45282;-71
2023/02/16 02:27:02;;;;;;;;;25.50;20.00;;;;;20.75;37.95;102298.78;5036372;28;45373;-71
2023/02/16 02:29:27;;;;;;;;;21.50;21.50;;;;;20.77;37.86;102298.63;5037787;28;45365;-72
2023/02/16 02:32:28;;;;;;;;;19.25;15.25;;;;;20.77;37.85;102294.19;5037711;28;47353;-72
2023/02/16 02:35:12;;;;;;;;;23.50;23.00;;;;;20.77;37.60;102299.47;5037243;28;45229;-72
2023/02/16 02:38:01;;;;;;;;;23.00;19.25;;;;;20.77;37.79;102294.19;5037980;28;45369;-72
2023/02/16 02:40:36;;;;;;;;;22.00;19.50;;;;;20.72;37.85;102278.72;5037350;28;45533;-72
2023/02/16 02:43:19;;;;;;;;;18.00;16.25;;;;;20.77;37.95;102286.25;5037769;28;45424;-71
2023/02/16 02:45:57;;;;;;;;;19.75;19.50;;;;;20.72;37.80;102275.25;5037416;28;45417;-72
2023/02/16 02:48:22;;;;;;;;;18.50;16.75;;;;;20.78;37.75;102292.38;5037675;28;45379;-72
2023/02/16 02:53:42;;;;;;;;;19.50;19.25;;;;;20.77;38.02;102283.59;5037638;28;45812;-72
2023/02/16 03:01:53;;;;;;;;;23.75;21.75;;;;;20.76;37.71;102275.81;5037587;28;45233;-72
2023/02/16 03:04:24;;;;;;;;;23.50;22.75;;;;;20.77;37.78;102274.81;5037524;28;46158;-72
2023/02/16 03:06:52;;;;;;;;;20.00;18.25;;;;;20.76;37.64;102275.81;5037492;28;45317;-72
2023/02/16 03:09:19;;;;;;;;;20.75;19.50;;;;;20.77;37.62;102269.53;5037621;28;45260;-72
2023/02/16 03:14:36;;;;;;;;;22.00;20.50;;;;;20.76;37.82;102273.16;5036898;28;45275;-72
2023/02/16 03:30:58;;;;;;;;;20.75;20.00;;;;;20.73;38.06;102261.91;5037008;28;45378;-71
2023/02/16 03:33:24;;;;;;;;;21.00;19.25;;;;;20.73;38.05;102261.06;5037100;28;45422;-72
2023/02/16 03:35:51;;;;;;;;;19.50;18.25;;;;;20.69;37.62;102255.19;5036591;28;46301;-72
2023/02/16 03:38:16;;;;;;;;;16.75;16.75;;;;;20.72;37.61;102259.38;5035865;28;45356;-72
2023/02/16 03:40:43;;;;;;;;;20.50;18.25;;;;;20.72;37.84;102268.16;5036930;28;45750;-72
2023/02/16 03:43:09;;;;;;;;;20.00;19.75;;;;;20.72;37.64;102265.50;5036579;28;45368;-71
2023/02/16 03:45:40;;;;;;;;;20.25;18.50;;;;;20.73;37.57;102258.41;5036889;28;45363;-72
2023/02/16 03:48:06;;;;;;;;;20.75;19.25;;;;;20.73;37.60;102266.34;5037057;28;45324;-72
2023/02/16 03:50:32;;;;;;;;;22.50;19.25;;;;;20.73;37.74;102261.91;5036919;28;45272;-71
2023/02/16 03:53:06;;;;;;;;;19.75;19.50;;;;;20.75;37.95;102269.69;5036595;28;45312;-72
2023/02/16 03:55:51;;;;;;;;;19.50;19.25;;;;;20.70;38.01;102256.88;5036627;28;46056;-72
2023/02/16 03:58:20;;;;;;;;;21.25;19.25;;;;;20.75;37.56;102267.03;5035830;28;45342;-72
2023/02/16 04:00:46;;;;;;;;;22.75;20.00;;;;;20.76;37.78;102266.06;5036601;28;45298;-72
2023/02/16 04:03:12;;;;;;;;;19.00;17.50;;;;;20.76;37.46;102266.06;5036555;28;45391;-72
2023/02/16 04:05:37;;;;;;;;;22.75;19.25;;;;;20.68;37.76;102256.19;5036579;28;45394;-72
2023/02/16 04:08:04;;;;;;;;;26.75;22.75;;;;;20.70;37.84;102256.88;5036667;28;45386;-72
2023/02/16 04:10:29;;;;;;;;;23.75;21.75;;;;;20.77;37.87;102269.53;5036224;28;45416;-72
2023/02/16 04:12:54;;;;;;;;;22.00;19.75;;;;;20.72;37.49;102265.50;5036291;28;45406;-72
2023/02/16 04:15:23;;;;;;;;;17.75;16.00;;;;;20.74;37.67;102268.84;5036468;28;45431;-71
2023/02/16 04:17:48;;;;;;;;;22.00;17.25;;;;;20.74;37.56;102268.84;5036502;28;45307;-72
2023/02/16 04:20:17;;;;;;;;;23.75;21.75;;;;;20.76;37.71;102270.53;5036421;28;45445;-72
2023/02/16 04:22:43;;;;;;;;;18.00;16.75;;;;;20.73;37.60;102266.34;5036593;28;45271;-72
2023/02/16 04:25:09;;;;;;;;;20.75;19.00;;;;;20.69;37.52;102264.94;5035758;28;45258;-72
2023/02/16 04:27:36;;;;;;;;;21.25;19.25;;;;;20.72;37.54;102269.94;5036140;28;45306;-72
2023/02/16 04:30:03;;;;;;;;;25.75;19.25;;;;;20.70;37.54;102264.81;5036264;28;45258;-72
2023/02/16 04:32:29;;;;;;;;;20.25;17.25;;;;;20.72;37.85;102267.31;5036033;28;45271;-72
2023/02/16 04:34:54;;;;;;;;;20.75;19.75;;;;;20.72;37.60;102267.31;5035754;28;46169;-71
2023/02/16 04:37:20;;;;;;;;;21.75;18.00;;;;;20.72;37.85;102267.31;5036008;28;45298;-72
2023/02/16 04:39:45;;;;;;;;;20.00;19.25;;;;;20.68;37.75;102261.47;5035874;28;45354;-72
2023/02/16 04:42:11;;;;;;;;;17.50;16.50;;;;;20.62;37.90;102259.34;5035816;28;45365;-72
2023/02/16 04:44:36;;;;;;;;;20.00;17.00;;;;;20.71;37.43;102269.09;5036082;28;46218;-72
2023/02/16 04:47:01;;;;;;;;;16.25;13.75;;;;;20.72;37.57;102277.88;5036003;28;45480;-72
2023/02/16 04:49:27;;;;;;;;;20.25;19.00;;;;;20.71;37.73;102273.59;5035809;28;45496;-73
2023/02/16 04:51:52;;;;;;;;;18.50;16.75;;;;;20.70;37.67;102280.69;5035170;28;45362;-72
2023/02/16 04:54:17;;;;;;;;;16.50;16.50;;;;;20.70;37.51;102280.69;5034840;28;46393;-72
2023/02/16 04:56:45;;;;;;;;;20.50;18.50;;;;;20.70;37.46;102282.47;5036017;28;45354;-72
2023/02/16 04:59:10;;;;;;;;;18.50;18.00;;;;;20.70;37.64;102270.09;5018065;28;45395;-73
2023/02/16 05:01:36;;;;;;;;;18.25;16.50;;;;;20.71;37.50;102276.22;5035777;28;45293;-72
2023/02/16 05:04:01;;;;;;;;;19.75;18.00;;;;;20.71;37.66;102274.41;5035768;28;45609;-72
2023/02/16 05:06:26;;;;;;;;;18.50;15.25;;;;;20.72;37.45;102277.88;5035718;28;45271;-72
2023/02/16 05:08:52;;;;;;;;;20.25;17.50;;;;;20.73;37.53;102276.91;5035613;28;45362;-72
2023/02/16 05:16:45;;;;;;;;;16.25;16.25;;;;;20.73;37.60;102275.13;5035579;28;45417;-72
2023/02/16 05:19:11;;;;;;;;;24.00;20.00;;;;;20.66;37.53;102262.56;5035604;28;45399;-72
2023/02/16 05:21:36;;;;;;;;;17.75;16.00;;;;;20.69;37.68;102272.84;5035578;28;45344;-72
2023/02/16 05:24:07;;;;;;;;;16.25;14.75;;;;;20.72;37.41;102278.72;5035029;28;46075;-72
2023/02/16 05:26:34;;;;;;;;;20.50;19.00;;;;;20.72;37.43;102275.25;5035451;28;45267;-72
2023/02/16 05:29:00;;;;;;;;;18.75;17.50;;;;;20.72;37.44;102277.88;5035352;28;45285;-72
2023/02/16 05:31:26;;;;;;;;;22.75;19.00;;;;;20.72;37.40;102273.44;5035262;28;45462;-72
2023/02/16 05:33:52;;;;;;;;;19.25;19.00;;;;;20.72;37.54;102272.59;5034924;28;45383;-71
2023/02/16 05:36:18;;;;;;;;;15.25;13.00;;;;;20.71;37.53;102269.09;5035135;28;45278;-72
2023/02/16 05:38:44;;;;;;;;;16.25;16.25;;;;;20.70;37.50;102275.38;5035090;28;45543;-72
2023/02/16 05:41:10;;;;;;;;;16.75;15.25;;;;;20.70;37.61;102272.75;5034984;28;45370;-72
2023/02/16 05:43:35;;;;;;;;;21.25;19.75;;;;;20.71;37.87;102274.41;5035188;28;47215;-72
2023/02/16 05:46:07;;;;;;;;;14.75;14.75;;;;;20.72;37.28;102277.88;5035091;28;45515;-72
2023/02/16 05:48:32;;;;;;;;;17.00;14.00;;;;;20.71;37.77;102270.94;5035339;28;45350;-72
2023/02/16 05:50:57;;;;;;;;;20.25;17.75;;;;;20.71;37.41;102273.59;5035103;28;45383;-72
2023/02/16 05:53:23;;;;;;;;;19.50;17.50;;;;;20.62;37.24;102262.84;5033725;28;45374;-72
2023/02/16 05:55:48;;;;;;;;;19.50;16.50;;;;;20.70;37.65;102278.03;5035159;28;45478;-72
2023/02/16 05:58:13;;;;;;;;;20.75;16.25;;;;;20.69;37.47;102270.22;5035197;28;45326;-72
2023/02/16 06:00:39;;;;;;;;;19.25;17.00;;;;;20.70;37.66;102270.09;5035029;28;45347;-72
2023/02/16 06:03:04;;;;;;;;;21.00;19.75;;;;;20.70;37.66;102274.53;5038388;28;45414;-72
2023/02/16 06:05:29;;;;;;;;;18.75;16.25;;;;;20.61;37.71;102276.19;5038370;28;45218;-72
2023/02/16 06:07:55;;;;;;;;;19.25;17.50;;;;;20.69;37.35;102289.56;5038238;28;45287;-72
2023/02/16 06:10:20;;;;;;;;;21.75;19.50;;;;;20.69;37.42;102296.66;5038528;28;45412;-72
2023/02/16 06:12:45;;;;;;;;;16.00;15.00;;;;;20.67;37.45;102299.47;5038051;28;46150;-71
2023/02/16 06:15:11;;;;;;;;;18.75;18.25;;;;;20.68;37.44;102298.50;5038123;28;45434;-72
2023/02/16 06:17:36;;;;;;;;;17.25;16.75;;;;;20.66;37.71;102294.31;5038503;28;45387;-72
2023/02/16 06:20:03;;;;;;;;;19.75;18.00;;;;;20.69;37.58;102297.50;5038470;28;45386;-72
2023/02/16 06:22:28;;;;;;;;;17.00;15.25;;;;;20.70;37.45;102301.00;5037645;28;46076;-72
2023/02/16 06:24:54;;;;;;;;;16.25;16.00;;;;;20.69;37.37;102300.16;5037994;28;45253;-71
2023/02/16 06:27:19;;;;;;;;;17.25;15.75;;;;;20.71;37.44;102300.03;5038405;28;45197;-72
2023/02/16 06:29:44;;;;;;;;;21.50;17.00;;;;;20.72;37.45;102304.34;5038144;28;45288;-72
2023/02/16 06:32:10;;;;;;;;;15.00;15.00;;;;;20.73;37.41;102304.22;5037892;28;45958;-72
2023/02/16 06:34:35;;;;;;;;;22.25;17.50;;;;;20.73;37.64;102306.03;5019904;28;45357;-72
2023/02/16 06:37:00;;;;;;;;;15.75;15.75;;;;;20.71;37.56;102303.50;5037674;28;45342;-72
2023/02/16 06:39:26;;;;;;;;;19.00;18.50;;;;;20.61;37.58;102278.81;5037253;28;45477;-72
2023/02/16 06:41:51;;;;;;;;;16.75;14.25;;;;;20.72;37.30;102294.59;5037719;28;46139;-72
2023/02/16 06:44:16;;;;;;;;;17.75;15.50;;;;;20.73;37.30;102295.44;5037848;28;45279;-72
2023/02/16 06:46:44;;;;;;;;;21.75;14.75;;;;;20.73;37.82;102300.72;5038095;28;45447;-72
2023/02/16 06:49:16;;;;;;;;;18.25;16.50;;;;;20.72;37.60;102304.34;5036912;28;45461;-72
2023/02/16 06:51:42;;;;;;;;;14.25;13.00;;;;;20.72;37.68;102309.63;5036727;28;45397;-72
2023/02/16 06:54:08;;;;;;;;;14.00;13.50;;;;;20.71;37.42;102313.25;5037650;28;45320;-71
2023/02/16 06:56:33;;;;;;;;;15.75;15.00;;;;;20.67;37.35;102312.69;5037968;28;45368;-78
2023/02/16 06:58:58;;;;;;;;;18.50;16.50;;;;;20.71;37.49;102323.84;5037726;28;45332;-72
2023/02/16 07:01:24;;;;;;;;;17.75;16.00;;;;;20.72;37.45;102330.78;5037625;28;46036;-72
2023/02/16 07:03:51;;;;;;;;;17.75;17.25;;;;;20.71;37.50;102329.94;5037466;28;45339;-72
2023/02/16 07:06:18;;;;;;;;;13.75;13.75;;;;;20.70;37.46;102320.34;5037265;28;45376;-73
2023/02/16 07:08:44;;;;;;;;;18.00;17.75;;;;;20.71;37.60;102321.19;5037211;28;45548;-78
2023/02/16 07:11:09;;;;;;;;;34.75;30.00;;;;;20.53;35.82;102316.56;5037198;28;47111;-75
2023/02/16 07:13:35;;;;;;;;;24.50;21.00;;;;;20.32;36.73;102295.47;5037175;28;45422;-80
2023/02/16 07:16:02;;;;;;;;;23.00;23.00;;;;;20.28;37.06;102290.44;5037208;28;45309;-73
2023/02/16 07:18:27;;;;;;;;;25.50;22.00;;;;;20.29;37.33;102275.41;5037429;28;45433;-72
2023/02/16 07:20:52;;;;;;;;;25.00;21.00;;;;;20.32;37.60;102269.88;5036739;28;45979;-72
2023/02/16 07:23:18;;;;;;;;;23.50;19.75;;;;;20.34;37.79;102273.22;5037114;28;45470;-72
2023/02/16 07:25:43;;;;;;;;;21.00;20.75;;;;;20.37;38.11;102264.16;5037318;28;45457;-73
2023/02/16 07:28:08;;;;;;;;;21.25;19.75;;;;;20.40;38.23;102263.91;5037270;28;45444;-72
2023/02/16 07:30:35;;;;;;;;;21.50;19.75;;;;;20.44;38.32;102254.72;5033995;28;46149;-74
2023/02/16 07:33:00;;;;;;;;;22.25;20.50;;;;;20.46;38.15;102246.66;5036818;28;45319;-74
2023/02/16 07:35:25;;;;;;;;;21.25;19.25;;;;;20.51;38.43;102247.06;5035936;28;45482;-72
2023/02/16 07:37:51;;;;;;;;;20.25;18.25;;;;;20.53;38.38;102237.22;5036967;28;45355;-72
2023/02/16 07:40:16;;;;;;;;;19.75;19.00;;;;;20.53;37.99;102247.81;5036982;28;45363;-73
2023/02/16 07:42:41;;;;;;;;;22.50;19.00;;;;;20.56;38.04;102260.72;5029895;28;45493;-73
2023/02/16 07:45:07;;;;;;;;;22.00;19.25;;;;;20.52;38.06;102267.28;5027749;28;45505;-72
2023/02/16 07:47:32;;;;;;;;;20.75;20.75;;;;;20.59;38.11;102281.63;5033513;28;45855;-72
2023/02/16 07:49:58;;;;;;;;;17.75;17.75;;;;;20.55;38.38;102274.09;5035669;28;46759;-72
2023/02/16 07:52:29;;;;;;;;;19.75;18.00;;;;;20.62;38.51;102288.44;5035891;28;45721;-73
2023/02/16 07:54:55;;;;;;;;;19.75;15.75;;;;;20.61;38.32;102294.69;5035913;28;45387;-73
2023/02/16 07:57:21;;;;;;;;;19.50;17.50;;;;;20.63;38.00;102295.41;5035503;28;45539;-73
2023/02/16 07:59:49;;;;;;;;;21.50;15.75;;;;;20.63;38.60;102304.16;5035996;28;46858;-73
2023/02/16 08:02:15;;;;;;;;;14.00;12.50;;;;;20.64;38.03;102307.66;5035841;28;45414;-73
2023/02/16 08:04:41;;;;;;;;;21.00;19.75;;;;;20.57;38.05;102291.50;5035618;28;45478;-72
2023/02/16 08:07:06;;;;;;;;;21.50;16.75;;;;;20.66;38.41;102310.19;5035699;28;45474;-73
2023/02/16 08:09:32;;;;;;;;;19.25;16.25;;;;;20.66;38.40;102323.41;5035551;28;46978;-73
2023/02/16 08:11:58;;;;;;;;;20.50;18.50;;;;;20.65;38.61;102322.56;5035865;28;45282;-72
2023/02/16 08:14:23;;;;;;;;;18.50;15.75;;;;;20.67;38.47;102317.97;5034650;28;45540;-71
2023/02/16 08:16:48;;;;;;;;;18.25;16.00;;;;;20.68;38.18;102324.94;5036005;28;45398;-72
2023/02/16 08:19:14;;;;;;;;;21.25;17.50;;;;;20.69;38.38;102323.09;5034285;28;46805;-72
2023/02/16 08:21:40;;;;;;;;;21.00;19.00;;;;;20.69;38.37;102321.31;5033722;28;45274;-73
2023/02/16 08:24:07;;;;;;;;;16.25;14.50;;;;;20.71;38.46;102321.19;5034548;28;45398;-73
2023/02/16 08:26:38;;;;;;;;;18.25;16.50;;;;;20.71;38.18;102314.06;5035512;28;45372;-71
2023/02/16 08:29:05;;;;;;;;;20.75;17.75;;;;;20.71;38.15;102310.63;5035400;28;45393;-73
2023/02/16 08:31:33;;;;;;;;;17.50;17.50;;;;;20.71;38.51;102319.34;5034587;28;45510;-73
2023/02/16 08:34:01;;;;;;;;;17.50;16.50;;;;;20.71;38.53;102321.19;5035273;28;45419;-72
2023/02/16 08:36:33;;;;;;;;;22.25;20.25;;;;;20.72;38.61;102304.34;5035922;28;45394;-73
2023/02/16 08:39:00;;;;;;;;;21.75;18.25;;;;;20.72;38.47;102318.41;5034657;28;45679;-73
2023/02/16 08:41:36;;;;;;;;;20.50;18.25;;;;;20.63;38.54;102317.38;5025244;28;45389;-73
2023/02/16 08:44:03;;;;;;;;;18.50;17.50;;;;;20.65;38.63;102321.72;5025503;28;45418;-73
2023/02/16 08:46:33;;;;;;;;;13.50;12.75;;;;;20.72;38.44;102325.50;5034761;28;45603;-73
2023/02/16 08:49:00;;;;;;;;;24.75;16.25;;;;;20.75;38.57;102346.38;5035280;28;47414;-73
2023/02/16 08:51:27;;;;;;;;;22.00;18.50;;;;;20.76;38.10;102355.16;5035016;28;45379;-73
2023/02/16 08:53:54;;;;;;;;;23.50;18.75;;;;;20.77;38.66;102355.03;5020061;28;45299;-73
2023/02/16 08:56:20;;;;;;;;;18.75;15.25;;;;;20.78;38.27;102346.13;5015133;28;45367;-73
2023/02/16 08:58:46;;;;;;;;;19.75;17.25;;;;;20.79;38.49;102345.13;5015505;28;46057;-73
2023/02/16 09:01:13;;;;;;;;;18.75;16.75;;;;;20.81;38.36;102337.09;5015388;28;45401;-73
2023/02/16 09:03:41;;;;;;;;;15.75;14.00;;;;;20.83;38.58;102340.41;5015305;28;45576;-73
2023/02/16 09:06:09;;;;;;;;;20.50;16.00;;;;;20.84;38.45;102331.53;5015700;28;45414;-73
2023/02/16 09:08:38;;;;;;;;;18.00;17.25;;;;;20.84;38.71;102345.56;5015456;28;46964;-73
2023/02/16 09:11:10;;;;;;;;;16.25;14.50;;;;;20.87;38.46;102348.94;5015653;28;45505;-73
2023/02/16 09:13:37;;;;;;;;;18.50;15.25;;;;;20.88;38.80;102347.94;5015594;28;45383;-73
2023/02/16 09:16:05;;;;;;;;;16.00;14.25;;;;;20.88;38.51;102347.94;5015318;28;45474;-72
2023/02/16 09:18:31;;;;;;;;;22.25;20.25;;;;;20.90;38.73;102353.94;5015340;28;46265;-73
2023/02/16 09:21:01;;;;;;;;;26.00;19.50;;;;;20.91;38.80;102352.97;5015476;28;45267;-74
2023/02/16 09:23:27;;;;;;;;;23.75;17.75;;;;;20.92;38.77;102368.69;5014803;28;45369;-74
2023/02/16 09:25:52;;;;;;;;;22.00;16.75;;;;;20.92;38.87;102373.19;5015335;28;45431;-74
2023/02/16 09:28:17;;;;;;;;;16.25;13.75;;;;;20.95;39.17;102372.88;5017326;28;45330;-73
2023/02/16 09:30:43;;;;;;;;;19.25;16.25;;;;;20.95;39.08;102379.03;5030756;28;45439;-72
2023/02/16 09:33:08;;;;;;;;;19.50;17.25;;;;;20.90;38.55;102364.50;5035315;28;45497;-73
2023/02/16 09:35:37;;;;;;;;;21.25;18.50;;;;;21.00;38.81;102377.78;5035197;28;45350;-73
2023/02/16 09:38:02;;;;;;;;;17.50;17.50;;;;;20.97;38.76;102370.97;5038184;28;46546;-72
2023/02/16 09:40:27;;;;;;;;;20.00;14.75;;;;;21.02;38.95;102378.53;5038602;28;46096;-73
2023/02/16 09:43:03;;;;;;;;;17.25;16.00;;;;;21.03;38.79;102378.38;5038664;28;45283;-73
2023/02/16 09:45:34;;;;;;;;;17.00;16.50;;;;;21.06;38.69;102371.97;5038291;28;45591;-73
2023/02/16 09:48:00;;;;;;;;;19.00;13.50;;;;;21.07;38.96;102376.31;5038521;28;46131;-73
2023/02/16 09:50:31;;;;;;;;;20.50;16.25;;;;;21.07;39.06;102378.94;5038325;28;45295;-73
2023/02/16 09:53:04;;;;;;;;;17.00;16.25;;;;;21.10;38.98;102378.69;5038515;28;45365;-73
2023/02/16 09:55:45;;;;;;;;;23.50;17.50;;;;;21.05;38.55;102372.97;5018771;28;45360;-73
2023/02/16 09:58:20;;;;;;;;;18.50;15.25;;;;;21.12;38.82;102383.81;5034146;28;45395;-73
2023/02/16 10:01:16;;;;;;;;;18.25;17.75;;;;;21.14;38.91;102382.72;5038112;28;45368;-73
2023/02/16 10:03:57;;;;;;;;;10.50;10.25;;;;;21.15;38.48;102375.63;4957044;28;45407;-73
2023/02/16 10:06:30;;;;;;;;;16.50;15.25;;;;;21.16;38.51;102374.63;4957443;28;45523;-73
2023/02/16 10:09:17;;;;;;;;;19.75;15.00;;;;;21.19;38.47;102374.34;4957100;28;47125;-73
2023/02/16 10:11:48;;;;;;;;;16.25;13.50;;;;;21.20;39.20;102370.75;4957139;28;45520;-73
2023/02/16 10:14:32;;;;;;;;;18.50;13.50;;;;;21.21;38.55;102368.94;4940593;28;45425;-73
2023/02/16 10:17:05;;;;;;;;;20.00;17.00;;;;;21.21;39.10;102371.59;4957171;28;45435;-73
2023/02/16 10:19:45;;;;;;;;;19.00;18.00;;;;;21.17;38.52;102353.34;4956198;28;45338;-73
2023/02/16 10:22:15;;;;;;;;;19.00;17.25;;;;;21.22;38.92;102358.22;4956860;28;45391;-74
2023/02/16 10:24:52;;;;;;;;;23.25;17.25;;;;;21.26;38.97;102349.00;4954619;28;45468;-72
2023/02/16 10:27:20;;;;;;;;;9.50;6.25;;;;;21.28;38.81;102351.53;4937415;28;45586;-72
2023/02/16 10:29:45;;;;;;;;;17.75;16.00;;;;;21.30;39.02;102346.94;4938995;28;47010;-73
2023/02/16 10:32:11;;;;;;;;;20.00;15.75;;;;;21.31;38.47;102345.13;4956208;28;45363;-73
2023/02/16 10:34:45;;;;;;;;;13.75;12.00;;;;;21.33;38.69;102336.06;4957033;28;45470;-73
2023/02/16 10:37:10;;;;;;;;;23.25;15.75;;;;;21.33;38.72;102336.06;4957050;28;45463;-73
2023/02/16 10:39:57;;;;;;;;;18.25;15.25;;;;;21.34;38.83;102337.72;4963585;28;46031;-73
2023/02/16 10:42:25;;;;;;;;;17.00;16.00;;;;;21.34;38.37;102345.66;5036424;28;45500;-73
2023/02/16 10:44:58;;;;;;;;;19.75;15.50;;;;;21.30;38.90;102346.94;5037938;28;45310;-73
2023/02/16 10:47:33;;;;;;;;;12.75;12.50;;;;;21.35;38.10;102342.06;5037426;28;45339;-73
2023/02/16 10:49:58;;;;;;;;;13.75;13.25;;;;;21.36;38.20;102338.44;5037810;28;46394;-73
2023/02/16 10:52:24;;;;;;;;;17.75;14.00;;;;;21.38;38.82;102339.13;5037057;28;45382;-73
2023/02/16 10:54:50;;;;;;;;;18.75;16.75;;;;;21.37;38.99;102341.91;5037972;28;45371;-73
2023/02/16 10:57:26;;;;;;;;;15.00;13.00;;;;;21.30;38.54;102325.75;5037385;28;45320;-73
2023/02/16 10:59:53;;;;;;;;;17.50;16.25;;;;;21.37;38.53;102342.75;5037490;28;47404;-73
2023/02/16 11:02:36;;;;;;;;;3.00;3.00;;;;;21.38;38.85;102349.72;5037365;28;45460;-73
2023/02/16 11:05:27;;;;;;;;;16.75;15.00;;;;;21.37;38.74;102348.03;5037643;28;45295;-73
2023/02/16 11:08:00;;;;;;;;;14.75;13.00;;;;;21.36;38.68;102338.44;5037426;28;45428;-73
2023/02/16 11:10:42;;;;;;;;;17.00;12.50;;;;;21.38;38.34;102347.09;5037301;28;46993;-73
2023/02/16 11:13:23;;;;;;;;;14.75;12.50;;;;;21.38;38.48;102343.59;5036808;28;45416;-73
2023/02/16 11:15:55;;;;;;;;;15.00;13.00;;;;;21.37;38.40;102345.41;5037253;28;45432;-75
2023/02/16 11:18:37;;;;;;;;;13.50;12.50;;;;;21.38;38.11;102336.50;5037172;28;45310;-72
2023/02/16 11:21:05;;;;;;;;;23.50;15.00;;;;;21.26;38.34;102306.66;5016356;28;46141;-72
2023/02/16 11:23:43;;;;;;;;;14.00;13.75;;;;;21.38;38.62;102322.41;5011081;28;45431;-72
2023/02/16 11:26:09;;;;;;;;;13.50;11.75;;;;;21.37;38.51;102318.91;5036664;28;45461;-72
2023/02/16 11:28:45;;;;;;;;;13.75;11.00;;;;;21.35;38.30;102312.94;5028789;28;45335;-72
2023/02/16 11:31:38;;;;;;;;;13.50;13.50;;;;;21.37;38.48;102307.50;5036678;28;45401;-72
2023/02/16 11:34:19;;;;;;;;;16.50;13.25;;;;;21.37;38.54;102321.56;5036941;28;45403;-72
2023/02/16 11:36:46;;;;;;;;;13.25;12.50;;;;;21.37;39.01;102310.97;5025500;28;45454;-73
2023/02/16 11:39:24;;;;;;;;;12.25;11.75;;;;;21.37;39.00;102305.69;5040006;28;45504;-72
2023/02/16 11:41:54;;;;;;;;;10.50;10.25;;;;;21.39;38.47;102306.38;5036400;28;45341;-72
2023/02/16 11:44:40;;;;;;;;;14.00;10.25;;;;;21.42;38.72;102293.84;5036702;28;45439;-72
2023/02/16 11:47:19;;;;;;;;;14.00;13.00;;;;;21.44;38.81;102294.53;5036718;28;45514;-72
2023/02/16 11:49:44;;;;;;;;;11.25;11.25;;;;;21.43;38.62;102296.34;5037085;28;45395;-72
2023/02/16 11:52:28;;;;;;;;;11.50;11.50;;;;;21.44;39.18;102287.44;5036193;28;45657;-72
2023/02/16 11:54:56;;;;;;;;;13.50;11.50;;;;;21.45;38.63;102297.03;5023527;28;45558;-72
2023/02/16 11:57:32;;;;;;;;;13.25;10.50;;;;;21.45;38.63;102288.25;5036753;28;45340;-72
2023/02/16 12:00:03;;;;;;;;;12.00;10.75;;;;;21.44;39.12;102286.59;5035268;28;45523;-72
2023/02/16 12:02:53;;;;;;;;;11.00;9.25;;;;;21.47;39.15;102294.25;5036088;28;47437;-72